Muar, Malaysia
Current Conditions -  °F | °C
As of 5:00 PM on Sunday 26 Oct 2014 (Local Time) from WMKM Reporting Station
Broken Clouds Broken Clouds  
Wind Chill: 90°   Ceiling: 28000
Heat Index: 102°   Visibility: 6mi
Dew Point: 77°   Wind: 6mph
Humidity: 66%   Direction: 180°S
Pressure: 29.77"   Gusts: NA
Location:  2.04°N, 102.57°E
Report Text: WMKM 260900Z 18005KT 120V240 9999 FEW022 BKN280 32/25 Q1008
Loading
Personal Weather Stations






























Interactive Weather Map
Tropical Storm Tracking
New forecast layout! Learn more

10-Day Weather Forecast

Advertisements
Track Severe Weather on mobile